Time;durP1;ratioP1;P1;durP2;ratioP2;P2;SDS_P1;SDS_P2;PMS_P1;PMS_P2;Temp;Humidity;BMP_temperature;BMP_pressure;BME280_temperature;BME280_humidity;BME280_pressure;Samples;Min_cycle;Max_cycle;Signal;HPM_P1;HPM_P2
2023/08/31 00:00:35;;;;;;;0.20;0.20;;;11.30;99.90;;;;;;5093658;28;20044;-61
2023/08/31 00:03:01;;;;;;;0.13;0.13;;;11.30;99.90;;;;;;5093630;28;20121;-61
2023/08/31 00:05:28;;;;;;;1.38;1.27;;;11.20;99.90;;;;;;5093633;28;20094;-61
2023/08/31 00:07:57;;;;;;;0.22;0.22;;;11.20;99.90;;;;;;5093613;28;20056;-61
2023/08/31 00:10:23;;;;;;;0.20;0.20;;;11.20;99.90;;;;;;5093499;28;20048;-61
2023/08/31 00:12:49;;;;;;;0.10;0.10;;;10.90;99.90;;;;;;5093501;28;20090;-62
2023/08/31 00:15:15;;;;;;;0.20;0.20;;;11.30;99.90;;;;;;5093408;28;20059;-60
2023/08/31 00:17:42;;;;;;;0.22;0.22;;;11.20;99.90;;;;;;5093658;28;20048;-60
2023/08/31 00:20:11;;;;;;;0.20;0.20;;;11.00;99.90;;;;;;5093399;28;20484;-61
2023/08/31 00:22:37;;;;;;;0.20;0.20;;;11.10;99.90;;;;;;5093284;28;20161;-60
2023/08/31 00:25:05;;;;;;;0.20;0.20;;;11.00;99.90;;;;;;5092513;28;20261;-60
2023/08/31 00:27:31;;;;;;;0.20;0.20;;;10.80;99.90;;;;;;5093140;28;20071;-61
2023/08/31 00:29:58;;;;;;;0.20;0.20;;;11.40;99.90;;;;;;5093791;28;20460;-60
2023/08/31 00:32:24;;;;;;;0.20;0.20;;;10.90;99.90;;;;;;5093328;28;20058;-61
2023/08/31 00:34:50;;;;;;;0.30;0.30;;;10.70;99.90;;;;;;5093115;28;20048;-62
2023/08/31 00:37:16;;;;;;;;;;;10.90;99.90;;;;;;5093468;28;20156;-61
2023/08/31 00:39:43;;;;;;;0.20;0.20;;;11.00;99.90;;;;;;5092975;28;20387;-60
2023/08/31 00:42:08;;;;;;;0.20;0.20;;;10.60;99.90;;;;;;5092842;28;20048;-62
2023/08/31 00:44:34;;;;;;;0.10;0.10;;;10.50;99.90;;;;;;5092827;28;20093;-60
2023/08/31 00:47:02;;;;;;;0.20;0.20;;;10.60;99.90;;;;;;5092813;28;20048;-62
2023/08/31 00:49:28;;;;;;;0.20;0.20;;;11.00;99.90;;;;;;5092775;28;20055;-61
2023/08/31 00:51:54;;;;;;;;;;;10.70;99.90;;;;;;5093192;28;20075;-60
2023/08/31 00:54:23;;;;;;;0.28;0.28;;;10.80;99.90;;;;;;5092690;28;20364;-61
2023/08/31 00:56:53;;;;;;;0.20;0.20;;;10.50;99.90;;;;;;5092585;28;20040;-60
2023/08/31 00:59:19;;;;;;;0.63;0.47;;;10.70;99.90;;;;;;5092616;28;20571;-61
2023/08/31 01:02:30;;;;;;;0.20;0.20;;;10.30;99.90;;;;;;5092375;28;20515;-60
2023/08/31 01:05:00;;;;;;;0.22;0.22;;;10.60;99.90;;;;;;5092605;28;20104;-61
2023/08/31 01:07:47;;;;;;;0.22;0.22;;;10.40;99.90;;;;;;5092806;28;20052;-60
2023/08/31 01:10:19;;;;;;;0.20;0.20;;;10.60;99.90;;;;;;5092250;28;20472;-59
2023/08/31 01:12:58;;;;;;;0.30;0.30;;;10.30;99.90;;;;;;5092416;28;20052;-62
2023/08/31 01:15:25;;;;;;;0.20;0.20;;;10.70;99.90;;;;;;5092314;28;20044;-60
2023/08/31 01:17:54;;;;;;;0.52;0.52;;;10.30;99.90;;;;;;5092194;28;20485;-60
2023/08/31 01:20:31;;;;;;;0.20;0.20;;;10.50;99.90;;;;;;5091937;28;20492;-61
2023/08/31 01:23:09;;;;;;;0.20;0.20;;;10.10;99.90;;;;;;5091847;28;20484;-60
2023/08/31 01:25:36;;;;;;;0.20;0.20;;;10.30;99.90;;;;;;5092213;28;20055;-60
2023/08/31 01:28:03;;;;;;;0.20;0.20;;;10.50;99.90;;;;;;5091779;28;20490;-61
2023/08/31 01:30:32;;;;;;;0.20;0.20;;;10.30;99.90;;;;;;5092106;28;20377;-60
2023/08/31 01:32:58;;;;;;;0.20;0.20;;;10.50;99.90;;;;;;5092001;28;20040;-61
2023/08/31 01:35:25;;;;;;;0.30;0.30;;;10.30;99.90;;;;;;5092090;28;20051;-60
2023/08/31 01:37:58;;;;;;;0.20;0.20;;;10.50;99.90;;;;;;5091620;28;20078;-61
2023/08/31 01:40:33;;;;;;;0.20;0.20;;;10.70;99.90;;;;;;5091665;28;20105;-60
2023/08/31 01:43:01;;;;;;;0.20;0.20;;;10.10;99.90;;;;;;5091905;28;20097;-61
2023/08/31 01:45:27;;;;;;;0.20;0.20;;;10.30;99.90;;;;;;5091885;28;20090;-61
2023/08/31 01:47:53;;;;;;;0.20;0.20;;;10.60;99.90;;;;;;5092077;28;20059;-61
2023/08/31 01:50:18;;;;;;;0.25;0.25;;;10.40;99.90;;;;;;5092185;28;20047;-61
2023/08/31 01:52:44;;;;;;;0.20;0.20;;;10.50;99.90;;;;;;5091848;28;20476;-60
2023/08/31 01:55:10;;;;;;;0.30;0.30;;;10.60;99.90;;;;;;5091736;28;20044;-60
2023/08/31 01:57:36;;;;;;;0.20;0.20;;;10.70;99.90;;;;;;5090802;28;20498;-60
2023/08/31 02:00:03;;;;;;;0.20;0.20;;;10.50;99.90;;;;;;5091836;28;20396;-60
2023/08/31 02:02:29;;;;;;;0.20;0.20;;;10.30;99.90;;;;;;5091569;28;20048;-61
2023/08/31 02:04:55;;;;;;;0.20;0.20;;;10.50;99.90;;;;;;5091671;28;20052;-60
2023/08/31 02:07:21;;;;;;;0.20;0.20;;;10.70;99.90;;;;;;5090335;28;20101;-61
2023/08/31 02:09:46;;;;;;;0.20;0.20;;;10.60;99.90;;;;;;5091670;28;20044;-61
2023/08/31 02:12:12;;;;;;;0.20;0.20;;;10.70;99.90;;;;;;5091478;28;20093;-61
2023/08/31 02:14:38;;;;;;;0.10;0.10;;;10.60;99.90;;;;;;5091553;28;20044;-60
2023/08/31 02:17:04;;;;;;;;;;;10.60;99.90;;;;;;5092010;28;20396;-61
2023/08/31 02:19:30;;;;;;;0.20;0.20;;;11.00;99.90;;;;;;5091537;28;19920;-60
2023/08/31 02:21:55;;;;;;;0.25;0.25;;;10.80;99.90;;;;;;5091384;28;20040;-60
2023/08/31 02:24:21;;;;;;;0.20;0.20;;;11.00;99.90;;;;;;5091076;28;20048;-61
2023/08/31 02:26:49;;;;;;;0.20;0.20;;;11.00;99.90;;;;;;5091432;28;20126;-60
2023/08/31 02:29:14;;;;;;;0.20;0.20;;;10.60;99.90;;;;;;5091427;28;20048;-61
2023/08/31 02:31:41;;;;;;;0.10;0.10;;;10.70;99.90;;;;;;5091360;28;20043;-61
2023/08/31 02:34:07;;;;;;;0.20;0.20;;;10.90;99.90;;;;;;5091247;28;20048;-60
2023/08/31 02:36:33;;;;;;;0.20;0.20;;;11.10;99.90;;;;;;5091249;28;20066;-60
2023/08/31 02:38:58;;;;;;;0.20;0.20;;;11.00;99.90;;;;;;5091339;28;20093;-61
2023/08/31 02:41:24;;;;;;;0.20;0.20;;;11.30;99.90;;;;;;5091284;28;20043;-61
2023/08/31 02:43:51;;;;;;;0.20;0.20;;;10.70;99.90;;;;;;5091219;28;20049;-60
2023/08/31 02:46:17;;;;;;;0.20;0.20;;;10.80;99.90;;;;;;5091206;28;20051;-60
2023/08/31 02:48:43;;;;;;;0.13;0.13;;;10.90;99.90;;;;;;5092062;28;20094;-60
2023/08/31 02:51:09;;;;;;;0.20;0.20;;;11.20;99.90;;;;;;5095030;28;20046;-60
2023/08/31 02:53:35;;;;;;;0.30;0.30;;;11.00;99.90;;;;;;5095100;28;20099;-61
2023/08/31 02:56:00;;;;;;;0.10;0.10;;;10.70;99.90;;;;;;5095055;28;20864;-60
2023/08/31 02:58:26;;;;;;;0.20;0.20;;;11.00;99.90;;;;;;5095048;28;20080;-62
2023/08/31 03:00:53;;;;;;;0.20;0.20;;;10.90;99.90;;;;;;5094950;28;20040;-60
2023/08/31 03:03:19;;;;;;;0.20;0.20;;;10.60;99.90;;;;;;5095104;28;20055;-61
2023/08/31 03:05:45;;;;;;;;;;;10.90;99.90;;;;;;5095224;28;20590;-60
2023/08/31 03:08:11;;;;;;;0.20;0.20;;;10.30;99.90;;;;;;5094740;28;20022;-61
2023/08/31 03:10:38;;;;;;;0.20;0.20;;;10.70;99.90;;;;;;5094673;28;20094;-62
2023/08/31 03:13:04;;;;;;;0.20;0.20;;;10.70;99.90;;;;;;5094690;28;20043;-60
2023/08/31 03:15:32;;;;;;;0.20;0.20;;;11.00;99.90;;;;;;5094699;28;20047;-60
2023/08/31 03:17:57;;;;;;;0.20;0.20;;;10.60;99.90;;;;;;5094594;28;20048;-61
2023/08/31 03:20:23;;;;;;;0.20;0.20;;;10.40;99.90;;;;;;5094797;28;20047;-60
2023/08/31 03:22:49;;;;;;;0.40;0.40;;;10.30;99.90;;;;;;5094388;28;20119;-61
2023/08/31 03:25:14;;;;;;;0.20;0.20;;;10.50;99.90;;;;;;5094651;28;20036;-60
2023/08/31 03:27:40;;;;;;;0.20;0.20;;;10.50;99.90;;;;;;5094426;28;20040;-60
2023/08/31 03:30:06;;;;;;;0.90;0.63;;;10.40;99.90;;;;;;5094292;28;20043;-61
2023/08/31 03:32:32;;;;;;;0.17;0.17;;;10.60;99.90;;;;;;5094170;28;20051;-61
2023/08/31 03:34:57;;;;;;;0.20;0.20;;;10.50;99.90;;;;;;5094534;28;20048;-61
2023/08/31 03:37:23;;;;;;;0.20;0.20;;;10.30;99.90;;;;;;5092924;28;20084;-61
2023/08/31 03:39:49;;;;;;;0.20;0.20;;;10.10;99.90;;;;;;5093793;28;20058;-60
2023/08/31 03:42:14;;;;;;;0.20;0.20;;;10.20;99.90;;;;;;5094076;28;20097;-60
2023/08/31 03:44:40;;;;;;;0.20;0.20;;;10.00;99.90;;;;;;5094048;28;20480;-60
2023/08/31 03:47:06;;;;;;;0.20;0.20;;;10.00;99.90;;;;;;5094323;28;20802;-60
2023/08/31 03:49:31;;;;;;;0.30;0.30;;;10.30;99.90;;;;;;5093984;28;20146;-61
2023/08/31 03:51:58;;;;;;;0.20;0.20;;;10.30;99.90;;;;;;5092599;28;20048;-61
2023/08/31 03:54:23;;;;;;;0.30;0.30;;;10.20;99.90;;;;;;5093859;28;20079;-60
2023/08/31 03:56:49;;;;;;;0.20;0.20;;;10.00;99.90;;;;;;5093949;28;20087;-60
2023/08/31 03:59:15;;;;;;;0.30;0.30;;;10.30;99.90;;;;;;5093596;28;20138;-60
2023/08/31 04:01:41;;;;;;;0.20;0.20;;;9.90;99.90;;;;;;5092283;28;20056;-60
2023/08/31 04:04:07;;;;;;;0.20;0.20;;;9.80;99.90;;;;;;5093876;28;20172;-60
2023/08/31 04:06:32;;;;;;;0.20;0.20;;;10.20;99.90;;;;;;5093855;28;20084;-60
2023/08/31 04:08:58;;;;;;;0.20;0.20;;;10.30;99.90;;;;;;5093806;28;20052;-61
2023/08/31 04:11:26;;;;;;;0.20;0.20;;;10.00;99.90;;;;;;5093492;28;20093;-60
2023/08/31 04:13:51;;;;;;;0.20;0.20;;;9.70;99.90;;;;;;5093400;28;20040;-60
2023/08/31 04:16:17;;;;;;;0.20;0.20;;;10.10;99.90;;;;;;5093441;28;20049;-61
2023/08/31 04:18:43;;;;;;;0.20;0.20;;;9.90;99.90;;;;;;5093409;28;20067;-60
2023/08/31 04:21:09;;;;;;;0.20;0.20;;;9.80;99.90;;;;;;5092167;28;20086;-60
2023/08/31 04:23:34;;;;;;;0.20;0.20;;;9.80;99.90;;;;;;5093192;28;20047;-60
2023/08/31 04:26:00;;;;;;;0.20;0.20;;;9.60;99.90;;;;;;5093225;28;20044;-60
2023/08/31 04:28:26;;;;;;;0.20;0.20;;;10.10;99.90;;;;;;5093133;28;20055;-60
2023/08/31 04:30:52;;;;;;;0.13;0.13;;;9.70;99.90;;;;;;5093072;28;20055;-60
2023/08/31 04:33:18;;;;;;;0.30;0.30;;;9.70;99.90;;;;;;5092992;28;20043;-61
2023/08/31 04:35:43;;;;;;;0.30;0.30;;;9.60;99.90;;;;;;5092685;28;20500;-61
2023/08/31 04:38:09;;;;;;;0.20;0.20;;;9.70;99.90;;;;;;5093040;28;20040;-61
2023/08/31 04:40:36;;;;;;;0.30;0.30;;;9.30;99.90;;;;;;5093005;28;20130;-60
2023/08/31 04:43:03;;;;;;;0.20;0.20;;;9.80;99.90;;;;;;5092873;28;20048;-60
2023/08/31 04:45:28;;;;;;;0.30;0.30;;;9.60;99.90;;;;;;5092730;28;20040;-60
2023/08/31 04:47:54;;;;;;;0.20;0.20;;;9.40;99.90;;;;;;5092520;28;20048;-60
2023/08/31 04:50:20;;;;;;;0.20;0.20;;;9.20;99.90;;;;;;5092832;28;20055;-60
2023/08/31 04:52:45;;;;;;;0.20;0.20;;;9.00;99.90;;;;;;5092776;28;20036;-59
2023/08/31 04:55:13;;;;;;;0.20;0.20;;;9.50;99.90;;;;;;5092983;28;20564;-60
2023/08/31 04:57:39;;;;;;;0.20;0.20;;;9.10;99.90;;;;;;5092889;28;20047;-61
2023/08/31 05:00:05;;;;;;;;;;;9.10;99.90;;;;;;5093052;28;20090;-60
2023/08/31 05:02:30;;;;;;;0.25;0.25;;;9.30;99.90;;;;;;5092126;28;20376;-60
2023/08/31 05:04:56;;;;;;;0.30;0.30;;;9.30;99.90;;;;;;5092451;28;20094;-60
2023/08/31 05:07:22;;;;;;;0.20;0.20;;;9.30;99.90;;;;;;5092314;28;20129;-60
2023/08/31 05:09:48;;;;;;;0.25;0.25;;;9.50;99.90;;;;;;5092442;28;20059;-60
2023/08/31 05:12:13;;;;;;;0.20;0.20;;;9.50;99.90;;;;;;5091774;28;20040;-60
2023/08/31 05:14:39;;;;;;;0.30;0.30;;;9.50;99.90;;;;;;5092020;28;20051;-61
2023/08/31 05:17:05;;;;;;;0.30;0.30;;;9.70;99.90;;;;;;5092364;28;20499;-62
2023/08/31 05:19:31;;;;;;;0.30;0.30;;;9.40;99.90;;;;;;5092286;28;20048;-61
2023/08/31 05:21:57;;;;;;;0.20;0.20;;;9.80;99.90;;;;;;5092285;28;20479;-60
2023/08/31 05:24:22;;;;;;;0.47;0.47;;;9.50;99.90;;;;;;5092184;28;20040;-60
2023/08/31 05:26:49;;;;;;;0.20;0.20;;;9.20;99.90;;;;;;5092138;28;20044;-61
2023/08/31 05:29:15;;;;;;;0.30;0.30;;;9.40;99.90;;;;;;5092147;28;20411;-60
2023/08/31 05:31:41;;;;;;;0.30;0.30;;;9.70;99.90;;;;;;5092089;28;20127;-59
2023/08/31 05:34:07;;;;;;;0.30;0.30;;;9.70;99.90;;;;;;5091943;28;20051;-60
2023/08/31 05:36:32;;;;;;;0.35;0.35;;;9.40;99.90;;;;;;5092303;28;20047;-59
2023/08/31 05:38:58;;;;;;;0.22;0.22;;;9.50;99.90;;;;;;5091968;28;20399;-60
2023/08/31 05:41:24;;;;;;;0.20;0.20;;;9.70;99.90;;;;;;5091893;28;20058;-60
2023/08/31 05:43:50;;;;;;;0.88;0.63;;;9.90;99.90;;;;;;5091819;28;20819;-60
2023/08/31 05:46:16;;;;;;;0.20;0.20;;;9.60;99.90;;;;;;5091946;28;20048;-60
2023/08/31 05:48:42;;;;;;;0.20;0.20;;;10.20;99.90;;;;;;5090707;28;20091;-60
2023/08/31 05:51:08;;;;;;;0.20;0.20;;;10.30;99.90;;;;;;5091879;28;20097;-60
2023/08/31 05:53:34;;;;;;;;;;;10.30;99.90;;;;;;5092035;28;20549;-60
2023/08/31 05:56:03;;;;;;;2.75;0.40;;;10.60;99.90;;;;;;5091742;28;19920;-60
2023/08/31 05:58:33;;;;;;;0.30;0.30;;;10.70;99.90;;;;;;5091734;28;20134;-60
2023/08/31 06:00:59;;;;;;;0.57;0.22;;;11.00;99.90;;;;;;5090631;28;20484;-61
2023/08/31 06:03:25;;;;;;;1.00;0.55;;;10.50;99.90;;;;;;5091145;28;20180;-60
2023/08/31 06:05:51;;;;;;;;;;;10.60;99.90;;;;;;5092180;28;20388;-60
2023/08/31 06:08:17;;;;;;;0.20;0.20;;;11.30;99.90;;;;;;5091714;28;19931;-59
2023/08/31 06:10:42;;;;;;;1.98;0.70;;;11.60;99.90;;;;;;5091604;28;20151;-60
2023/08/31 06:13:08;;;;;;;0.57;0.57;;;11.40;99.90;;;;;;5091526;28;20040;-60
2023/08/31 06:15:34;;;;;;;0.20;0.20;;;11.90;99.90;;;;;;5091999;28;20087;-60
2023/08/31 06:17:59;;;;;;;0.40;0.40;;;11.50;99.90;;;;;;5091825;28;20097;-60
2023/08/31 06:20:25;;;;;;;0.43;0.35;;;11.80;99.90;;;;;;5091642;28;20063;-60
2023/08/31 06:22:50;;;;;;;0.20;0.20;;;11.80;99.90;;;;;;5091418;28;20044;-60
2023/08/31 06:25:18;;;;;;;0.65;0.55;;;11.90;99.90;;;;;;5095022;28;20051;-59
2023/08/31 06:27:44;;;;;;;0.20;0.20;;;11.90;99.90;;;;;;5095838;28;20148;-60
2023/08/31 06:30:16;;;;;;;0.20;0.20;;;12.10;99.90;;;;;;5095287;28;20469;-60
2023/08/31 06:32:46;;;;;;;0.20;0.20;;;12.50;99.90;;;;;;5095730;28;20077;-60
2023/08/31 06:35:13;;;;;;;0.22;0.22;;;12.10;99.90;;;;;;5095525;28;20140;-59
2023/08/31 06:37:39;;;;;;;0.30;0.30;;;11.90;99.90;;;;;;5095317;28;20052;-61
2023/08/31 06:40:09;;;;;;;0.30;0.30;;;12.60;99.90;;;;;;5095273;28;20051;-60
2023/08/31 06:42:39;;;;;;;0.10;0.10;;;12.30;99.90;;;;;;5094003;28;20039;-59
2023/08/31 06:45:06;;;;;;;0.20;0.20;;;12.70;99.90;;;;;;5095199;28;20192;-60
2023/08/31 06:47:33;;;;;;;0.10;0.10;;;12.90;99.90;;;;;;5095337;28;20126;-60
2023/08/31 06:49:59;;;;;;;0.30;0.30;;;13.40;99.90;;;;;;5095470;28;20100;-60
2023/08/31 06:52:28;;;;;;;;;;;13.50;99.90;;;;;;5095638;28;20048;-60
2023/08/31 06:54:56;;;;;;;0.10;0.10;;;13.60;99.90;;;;;;5095121;28;19982;-59
2023/08/31 06:57:23;;;;;;;0.20;0.20;;;13.70;99.90;;;;;;5093987;28;20044;-59
2023/08/31 06:59:49;;;;;;;0.10;0.10;;;13.60;99.90;;;;;;5094771;28;20071;-60
2023/08/31 07:02:15;;;;;;;0.32;0.32;;;14.10;99.90;;;;;;5094663;28;20637;-61
2023/08/31 07:04:40;;;;;;;;;;;13.70;99.90;;;;;;5095231;28;20404;-60
2023/08/31 07:07:08;;;;;;;0.20;0.20;;;13.70;99.90;;;;;;5094814;28;19920;-60
2023/08/31 07:09:34;;;;;;;0.10;0.10;;;13.30;99.90;;;;;;5094753;28;20368;-59
2023/08/31 07:12:01;;;;;;;;;;;13.70;99.90;;;;;;5095061;28;20055;-61
2023/08/31 07:14:27;;;;;;;0.20;0.20;;;13.90;99.90;;;;;;5094768;28;19974;-60
2023/08/31 07:16:53;;;;;;;0.30;0.30;;;14.00;99.90;;;;;;5094840;28;20079;-59
2023/08/31 07:19:18;;;;;;;0.20;0.20;;;14.10;99.90;;;;;;5094502;28;20056;-60
2023/08/31 07:21:45;;;;;;;0.20;0.20;;;14.20;99.90;;;;;;5094067;28;20051;-60
2023/08/31 07:24:10;;;;;;;0.20;0.20;;;14.70;99.90;;;;;;5094535;28;20051;-61
2023/08/31 07:26:36;;;;;;;0.20;0.20;;;14.70;99.90;;;;;;5094403;28;20043;-61
2023/08/31 07:29:05;;;;;;;0.20;0.20;;;14.70;99.90;;;;;;5094428;28;20381;-60
2023/08/31 07:31:31;;;;;;;1.55;0.68;;;14.70;99.90;;;;;;5094057;28;20388;-60
2023/08/31 07:33:57;;;;;;;0.20;0.20;;;14.60;99.90;;;;;;5094006;28;20051;-61
2023/08/31 07:36:24;;;;;;;;;;;15.10;99.90;;;;;;5094116;28;20511;-60
2023/08/31 07:38:50;;;;;;;0.10;0.10;;;14.90;99.90;;;;;;5094168;28;19938;-61
2023/08/31 07:41:15;;;;;;;0.17;0.17;;;14.70;99.90;;;;;;5092822;28;20063;-59
2023/08/31 07:43:41;;;;;;;0.10;0.10;;;15.10;99.90;;;;;;5092813;28;20094;-61
2023/08/31 07:46:06;;;;;;;;;;;15.50;99.90;;;;;;5094451;28;20092;-60
2023/08/31 07:48:32;;;;;;;0.22;0.22;;;15.30;99.90;;;;;;5094003;28;20398;-60
2023/08/31 07:50:58;;;;;;;0.20;0.20;;;15.50;99.90;;;;;;5094025;28;20381;-61
2023/08/31 07:53:23;;;;;;;;;;;15.00;99.90;;;;;;5094462;28;20471;-60
2023/08/31 07:55:56;;;;;;;0.80;0.68;;;15.00;99.90;;;;;;5093837;28;19959;-60
2023/08/31 07:58:23;;;;;;;0.10;0.10;;;15.50;99.90;;;;;;5093861;28;20055;-61
2023/08/31 08:00:51;;;;;;;0.10;0.10;;;15.30;99.90;;;;;;5093421;28;20134;-61
2023/08/31 08:03:17;;;;;;;0.10;0.10;;;15.50;99.90;;;;;;5090232;28;20063;-60
2023/08/31 08:05:43;;;;;;;0.20;0.20;;;15.50;99.90;;;;;;5092139;28;20044;-60
2023/08/31 08:08:09;;;;;;;0.10;0.10;;;15.60;99.90;;;;;;5093354;28;20040;-60
2023/08/31 08:10:35;;;;;;;0.10;0.10;;;15.30;99.90;;;;;;5092943;28;20051;-61
2023/08/31 08:13:01;;;;;;;1.25;0.40;;;15.60;99.90;;;;;;5093158;28;20416;-59
2023/08/31 08:15:26;;;;;;;;;;;16.20;99.90;;;;;;5093533;28;20047;-59
2023/08/31 08:17:53;;;;;;;0.10;0.10;;;16.30;99.90;;;;;;5091400;28;20288;-60
2023/08/31 08:20:19;;;;;;;0.10;0.10;;;16.10;99.90;;;;;;5071748;28;20055;-59
2023/08/31 08:22:45;;;;;;;0.10;0.10;;;15.80;99.90;;;;;;5073468;28;20426;-60
2023/08/31 08:25:11;;;;;;;;;;;15.80;99.90;;;;;;5075152;28;20132;-60
2023/08/31 08:27:37;;;;;;;0.10;0.10;;;15.60;99.90;;;;;;5072497;28;19943;-59
2023/08/31 08:30:03;;;;;;;;;;;15.80;99.90;;;;;;5084824;28;20052;-59
2023/08/31 08:32:28;;;;;;;0.10;0.10;;;15.90;99.90;;;;;;5072383;28;19924;-61
2023/08/31 08:34:54;;;;;;;0.10;0.10;;;15.60;99.90;;;;;;5075574;28;20054;-60
2023/08/31 08:37:20;;;;;;;;;;;15.80;99.90;;;;;;5072648;28;20041;-60
2023/08/31 08:39:50;;;;;;;0.10;0.10;;;16.20;99.90;;;;;;5084367;28;19932;-61
2023/08/31 08:42:18;;;;;;;0.10;0.10;;;16.40;99.90;;;;;;5072355;28;20051;-59
2023/08/31 08:44:44;;;;;;;0.20;0.20;;;16.10;99.90;;;;;;5074793;28;20123;-62
2023/08/31 08:47:12;;;;;;;0.30;0.30;;;16.50;99.90;;;;;;5069922;28;20046;-60
2023/08/31 08:49:38;;;;;;;0.28;0.28;;;16.40;99.90;;;;;;5085174;28;20052;-62
2023/08/31 08:52:05;;;;;;;0.10;0.10;;;16.60;99.90;;;;;;5083175;28;20044;-61
2023/08/31 08:54:31;;;;;;;0.20;0.20;;;16.60;99.90;;;;;;5091841;28;20048;-62
2023/08/31 08:56:57;;;;;;;0.10;0.10;;;17.00;99.90;;;;;;5091194;28;20055;-61
2023/08/31 08:59:23;;;;;;;;;;;17.20;99.90;;;;;;5091914;28;20044;-60
2023/08/31 09:01:49;;;;;;;0.50;0.50;;;17.30;99.90;;;;;;5090668;28;19931;-61
2023/08/31 09:04:15;;;;;;;;;;;17.80;99.90;;;;;;5092343;28;20052;-61
2023/08/31 09:06:40;;;;;;;0.10;0.10;;;17.60;99.90;;;;;;5090788;28;19966;-60
2023/08/31 09:09:09;;;;;;;;;;;17.20;99.90;;;;;;5092014;28;20051;-61
2023/08/31 09:11:35;;;;;;;0.10;0.10;;;17.00;99.90;;;;;;5091466;28;19928;-61
2023/08/31 09:14:13;;;;;;;;;;;16.20;99.90;;;;;;5091603;28;20129;-62
2023/08/31 09:16:39;;;;;;;0.10;0.10;;;15.80;99.90;;;;;;5091545;28;19919;-60
2023/08/31 09:19:17;;;;;;;;;;;15.60;99.90;;;;;;5091908;28;20120;-62
2023/08/31 09:21:42;;;;;;;0.20;0.20;;;15.50;99.90;;;;;;5090722;28;19945;-60
2023/08/31 09:24:10;;;;;;;;;;;14.90;99.90;;;;;;5091578;28;20059;-61
2023/08/31 09:26:39;;;;;;;0.10;0.10;;;15.10;99.90;;;;;;5091173;28;19935;-61
2023/08/31 09:29:08;;;;;;;0.17;0.17;;;15.10;99.90;;;;;;5090832;28;20439;-62
2023/08/31 09:31:34;;;;;;;1.35;0.45;;;15.00;99.90;;;;;;5088348;28;20052;-67
2023/08/31 09:34:00;;;;;;;;;;;15.20;99.90;;;;;;5071965;28;20036;-60
2023/08/31 09:36:28;;;;;;;0.10;0.10;;;16.10;99.90;;;;;;5071632;28;19924;-63
2023/08/31 09:38:58;;;;;;;0.75;0.75;;;16.40;99.90;;;;;;5069995;28;20052;-62
2023/08/31 09:41:24;;;;;;;0.13;0.13;;;16.50;99.90;;;;;;5079974;28;20039;-60
2023/08/31 09:43:49;;;;;;;;;;;16.60;99.90;;;;;;5069664;28;20048;-60
2023/08/31 09:46:15;;;;;;;0.10;0.10;;;17.20;99.90;;;;;;5071821;28;19924;-60
2023/08/31 09:48:42;;;;;;;;;;;17.50;99.90;;;;;;5079187;28;20134;-61
2023/08/31 09:51:10;;;;;;;0.10;0.10;;;17.70;99.90;;;;;;5076446;28;20291;-59
2023/08/31 09:53:37;;;;;;;0.22;0.22;;;17.90;99.90;;;;;;5087526;28;20044;-61
2023/08/31 09:56:05;;;;;;;0.20;0.20;;;18.00;99.90;;;;;;5071842;28;20121;-59
2023/08/31 09:58:32;;;;;;;0.10;0.10;;;17.60;99.90;;;;;;5077655;28;20080;-60
2023/08/31 10:00:59;;;;;;;0.20;0.20;;;17.80;99.90;;;;;;5068680;28;20393;-60
2023/08/31 10:03:27;;;;;;;0.10;0.10;;;17.30;99.90;;;;;;5066701;28;20797;-59
2023/08/31 10:05:54;;;;;;;0.15;0.15;;;17.20;99.90;;;;;;5070672;28;20044;-60
2023/08/31 10:08:20;;;;;;;0.03;0.03;;;16.90;99.90;;;;;;5079499;28;20037;-60
2023/08/31 10:10:47;;;;;;;0.17;0.17;;;16.50;99.90;;;;;;5071239;28;20131;-59
2023/08/31 10:13:13;;;;;;;0.10;0.10;;;16.50;99.90;;;;;;5071135;28;20048;-60
2023/08/31 10:15:41;;;;;;;0.10;0.10;;;16.40;99.90;;;;;;5070849;28;20063;-60
2023/08/31 10:18:07;;;;;;;0.10;0.10;;;16.10;99.90;;;;;;5078663;28;20693;-60
2023/08/31 10:20:34;;;;;;;0.20;0.20;;;16.40;99.90;;;;;;5070593;28;20119;-60
2023/08/31 10:23:04;;;;;;;0.10;0.10;;;16.70;99.90;;;;;;5106657;28;20059;-61
2023/08/31 10:26:00;;;;;;;0.13;0.13;;;17.20;99.90;;;;;;5109883;28;20044;-60
2023/08/31 10:28:30;;;;;;;0.10;0.10;;;17.40;99.90;;;;;;5110196;28;20047;-60
2023/08/31 10:31:19;;;;;;;0.10;0.10;;;17.70;99.90;;;;;;5087446;28;20051;-60
2023/08/31 10:33:46;;;;;;;4.75;0.22;;;17.60;99.90;;;;;;5090703;28;20045;-60
2023/08/31 10:36:21;;;;;;;0.10;0.10;;;17.80;99.90;;;;;;5090310;28;20063;-62
2023/08/31 10:38:55;;;;;;;0.90;0.38;;;18.20;99.90;;;;;;5085974;28;20052;-60
2023/08/31 10:41:22;;;;;;;0.10;0.10;;;18.70;99.90;;;;;;5087076;28;20047;-60
2023/08/31 10:43:52;;;;;;;2.72;0.88;;;18.70;99.90;;;;;;5088128;28;20044;-60
2023/08/31 10:46:41;;;;;;;0.20;0.20;;;18.80;99.90;;;;;;5090747;28;20060;-61
2023/08/31 10:49:10;;;;;;;0.10;0.10;;;18.40;99.90;;;;;;5089583;28;20105;-61
2023/08/31 10:51:41;;;;;;;0.10;0.10;;;18.20;99.90;;;;;;5091120;28;20044;-60
2023/08/31 10:54:13;;;;;;;0.52;0.30;;;18.40;99.90;;;;;;5091231;28;20044;-60
2023/08/31 10:56:51;;;;;;;0.00;0.00;;;18.40;99.90;;;;;;5090261;28;20485;-61
2023/08/31 10:59:17;;;;;;;0.00;0.00;;;18.10;99.90;;;;;;5091345;28;20157;-59
2023/08/31 11:02:00;;;;;;;0.25;0.25;;;17.50;99.90;;;;;;5090980;28;20500;-59
2023/08/31 11:04:27;;;;;;;0.30;0.25;;;17.40;99.90;;;;;;5090893;28;20059;-59
2023/08/31 11:07:16;;;;;;;0.10;0.10;;;16.90;99.90;;;;;;5089895;28;20048;-60
2023/08/31 11:09:43;;;;;;;0.52;0.52;;;16.30;99.90;;;;;;5092235;28;20506;-59
2023/08/31 11:12:09;;;;;;;0.20;0.20;;;16.30;99.90;;;;;;5094219;28;20500;-60
2023/08/31 11:14:35;;;;;;;;;;;15.80;99.90;;;;;;5094853;28;20527;-59
2023/08/31 11:17:03;;;;;;;0.17;0.17;;;15.00;99.90;;;;;;5094550;28;20053;-59
2023/08/31 11:19:29;;;;;;;0.10;0.10;;;14.70;99.90;;;;;;5094181;28;20056;-60
2023/08/31 11:21:55;;;;;;;;;;;14.60;99.90;;;;;;5094736;28;20123;-60
2023/08/31 11:24:21;;;;;;;0.20;0.20;;;14.60;99.90;;;;;;5094523;28;19919;-59
2023/08/31 11:26:51;;;;;;;0.20;0.20;;;14.40;99.90;;;;;;5093884;28;20097;-59
2023/08/31 11:29:17;;;;;;;0.20;0.20;;;14.80;99.90;;;;;;5094415;28;20040;-60
2023/08/31 11:31:43;;;;;;;0.10;0.10;;;15.40;99.90;;;;;;5094273;28;20052;-59
2023/08/31 11:34:15;;;;;;;;;;;15.90;99.90;;;;;;5093939;28;20496;-58
2023/08/31 11:36:42;;;;;;;0.10;0.10;;;16.20;99.90;;;;;;5094093;28;19928;-59
2023/08/31 11:39:14;;;;;;;0.10;0.10;;;16.90;99.90;;;;;;5094234;28;20372;-60
2023/08/31 11:41:41;;;;;;;0.10;0.10;;;16.50;99.90;;;;;;5093556;28;20652;-59
2023/08/31 11:44:13;;;;;;;0.35;0.20;;;16.30;99.90;;;;;;5094041;28;20036;-60
2023/08/31 11:46:41;;;;;;;0.20;0.15;;;15.90;99.90;;;;;;5093833;28;20036;-59
2023/08/31 11:49:07;;;;;;;0.25;0.25;;;16.20;99.90;;;;;;5093564;28;20051;-60
2023/08/31 11:51:34;;;;;;;;;;;16.20;99.90;;;;;;5094251;28;20077;-60
2023/08/31 11:54:02;;;;;;;0.10;0.10;;;16.50;99.90;;;;;;5093864;28;19963;-59
2023/08/31 11:56:51;;;;;;;0.10;0.10;;;16.90;99.90;;;;;;5093255;28;20052;-60
2023/08/31 11:59:17;;;;;;;1.85;0.32;;;17.00;99.90;;;;;;5093823;28;20052;-61
2023/08/31 12:01:45;;;;;;;0.20;0.20;;;16.80;99.90;;;;;;5091741;28;20043;-61
2023/08/31 12:04:20;;;;;;;0.17;0.17;;;16.80;99.90;;;;;;5092381;28;20504;-61
2023/08/31 12:06:50;;;;;;;0.20;0.20;;;17.10;99.90;;;;;;5093153;28;20048;-62
2023/08/31 12:09:16;;;;;;;0.10;0.10;;;17.00;99.90;;;;;;5093086;28;20048;-60
2023/08/31 12:11:42;;;;;;;0.10;0.10;;;17.30;99.90;;;;;;5092325;28;20504;-63
2023/08/31 12:14:28;;;;;;;;;;;17.00;99.90;;;;;;5093660;28;20140;-60
2023/08/31 12:17:03;;;;;;;0.10;0.10;;;17.40;99.90;;;;;;5087905;28;19924;-61
2023/08/31 12:19:29;;;;;;;0.10;0.10;;;17.70;99.90;;;;;;5073974;28;20053;-61
2023/08/31 12:21:56;;;;;;;0.10;0.10;;;17.90;99.90;;;;;;5074418;28;20052;-61
2023/08/31 12:24:23;;;;;;;0.00;0.00;;;17.40;99.90;;;;;;5084503;28;20087;-61
2023/08/31 12:26:49;;;;;;;0.10;0.10;;;18.00;99.90;;;;;;5072246;28;20524;-63
2023/08/31 12:29:14;;;;;;;0.38;0.38;;;17.90;99.90;;;;;;5077231;28;20036;-61
2023/08/31 12:31:40;;;;;;;;;;;18.20;99.90;;;;;;5072210;28;20051;-61
2023/08/31 12:34:06;;;;;;;3.13;0.30;;;18.10;99.90;;;;;;5086152;28;19924;-61
2023/08/31 12:36:33;;;;;;;0.35;0.35;;;18.50;99.90;;;;;;5072223;28;20082;-62
2023/08/31 12:39:06;;;;;;;0.10;0.10;;;18.70;99.90;;;;;;5077865;28;20044;-62
2023/08/31 12:41:31;;;;;;;0.10;0.10;;;19.00;99.90;;;;;;5069669;28;20079;-67
2023/08/31 12:43:57;;;;;;;0.00;0.00;;;18.10;99.90;;;;;;5071064;28;20032;-61
2023/08/31 12:46:23;;;;;;;0.35;0.20;;;18.70;99.90;;;;;;5071229;28;20101;-61
2023/08/31 12:48:49;;;;;;;0.20;0.20;;;18.40;99.90;;;;;;5070985;28;20587;-61
2023/08/31 12:51:19;;;;;;;0.30;0.30;;;18.60;99.90;;;;;;5079250;28;20082;-63
2023/08/31 12:53:44;;;;;;;0.00;0.00;;;19.00;99.90;;;;;;5091932;28;20048;-63
2023/08/31 12:56:10;;;;;;;0.10;0.10;;;18.50;99.90;;;;;;5092032;28;20096;-63